Archival Weather

Murmansk

Murmansk, Russia (ULMM)

Report from: Thursday, April 25, 2024 7:30 AM MSK
Current time: Monday, June 17, 2024 9:56 AM MSK

Current weather – Weather history – Daily summaries
Weather forecast

Temperature1.0°C (33.8°F)
Wind chill-2.3°C (27.9°F)
Dew point-0.0°C (32.0°F)
Winds 5.8 kts (3 m/s, 6.7 mph) South-Southeast (150°)
Visibility6.2 mi. (10 km)
Clouds Ceiling: Broken clouds with cumulonimbus 2,000 ft. (610 m)
Altimeter29.97 in.Hg (1015 mB)
Precip. events QF 3:35 PM
Relative humidity93 %
Density altitude-1,675 ft. (-511 m)
Remarks No significant changes expected in the next two hours
Flight conditions Marginal Visual Meteorological Conditions
Raw dataULMM 250430Z 15003MPS 9999 BKN020CB 01/M00 Q1015 R13/690152 NOSIG RMK QFE755
An error has occurred. This application may no longer respond until reloaded. Reload 🗙